sensor_id;sensor_type;location;lat;lon;timestamp;P1;durP1;ratioP1;P2;durP2;ratioP2
48791;SDS011;34587;48.816;9.420;2023-08-21T04:16:48;5.57;;;4.75;;
48791;SDS011;34587;48.816;9.420;2023-08-21T04:19:14;9.60;;;5.05;;
48791;SDS011;34587;48.816;9.420;2023-08-21T04:21:39;9.02;;;4.75;;
48791;SDS011;34587;48.816;9.420;2023-08-21T04:24:04;7.35;;;4.30;;
48791;SDS011;34587;48.816;9.420;2023-08-21T04:26:30;4.97;;;4.40;;
48791;SDS011;34587;48.816;9.420;2023-08-21T04:28:55;12.23;;;5.50;;
48791;SDS011;34587;48.816;9.420;2023-08-21T04:31:21;8.57;;;5.03;;
48791;SDS011;34587;48.816;9.420;2023-08-21T04:33:46;6.68;;;4.97;;
48791;SDS011;34587;48.816;9.420;2023-08-21T04:36:15;6.35;;;4.95;;
48791;SDS011;34587;48.816;9.420;2023-08-21T04:38:41;9.70;;;5.68;;
48791;SDS011;34587;48.816;9.420;2023-08-21T04:41:06;6.65;;;4.70;;
48791;SDS011;34587;48.816;9.420;2023-08-21T04:43:32;7.40;;;4.78;;
48791;SDS011;34587;48.816;9.420;2023-08-21T04:45:58;9.38;;;4.80;;
48791;SDS011;34587;48.816;9.420;2023-08-21T04:48:23;6.00;;;4.75;;
48791;SDS011;34587;48.816;9.420;2023-08-21T04:50:48;8.43;;;5.07;;
48791;SDS011;34587;48.816;9.420;2023-08-21T04:53:14;9.77;;;4.97;;
48791;SDS011;34587;48.816;9.420;2023-08-21T04:55:39;5.93;;;4.72;;
48791;SDS011;34587;48.816;9.420;2023-08-21T04:58:06;9.65;;;6.05;;
48791;SDS011;34587;48.816;9.420;2023-08-21T05:00:32;6.78;;;4.25;;
48791;SDS011;34587;48.816;9.420;2023-08-21T05:02:57;13.10;;;5.30;;
48791;SDS011;34587;48.816;9.420;2023-08-21T05:05:22;6.40;;;4.72;;
48791;SDS011;34587;48.816;9.420;2023-08-21T05:07:48;5.75;;;4.85;;
48791;SDS011;34587;48.816;9.420;2023-08-21T05:10:13;6.75;;;4.80;;
48791;SDS011;34587;48.816;9.420;2023-08-21T05:12:38;8.10;;;5.00;;
48791;SDS011;34587;48.816;9.420;2023-08-21T05:15:04;4.72;;;4.20;;
48791;SDS011;34587;48.816;9.420;2023-08-21T05:17:29;6.57;;;4.80;;
48791;SDS011;34587;48.816;9.420;2023-08-21T05:19:55;5.80;;;5.20;;
48791;SDS011;34587;48.816;9.420;2023-08-21T05:22:21;6.70;;;4.88;;
48791;SDS011;34587;48.816;9.420;2023-08-21T05:24:46;6.05;;;5.22;;
48791;SDS011;34587;48.816;9.420;2023-08-21T05:27:11;5.60;;;4.60;;
48791;SDS011;34587;48.816;9.420;2023-08-21T05:29:37;8.30;;;5.15;;
48791;SDS011;34587;48.816;9.420;2023-08-21T05:32:02;6.53;;;4.70;;
48791;SDS011;34587;48.816;9.420;2023-08-21T05:34:28;7.10;;;4.40;;
48791;SDS011;34587;48.816;9.420;2023-08-21T05:36:53;7.65;;;4.68;;
48791;SDS011;34587;48.816;9.420;2023-08-21T05:39:19;9.63;;;4.80;;
48791;SDS011;34587;48.816;9.420;2023-08-21T05:41:45;10.43;;;5.60;;
48791;SDS011;34587;48.816;9.420;2023-08-21T05:44:10;7.40;;;5.80;;
48791;SDS011;34587;48.816;9.420;2023-08-21T05:46:35;7.60;;;5.25;;
48791;SDS011;34587;48.816;9.420;2023-08-21T05:49:00;9.05;;;5.25;;
48791;SDS011;34587;48.816;9.420;2023-08-21T05:51:26;7.32;;;5.43;;
48791;SDS011;34587;48.816;9.420;2023-08-21T05:53:51;6.50;;;4.53;;
48791;SDS011;34587;48.816;9.420;2023-08-21T05:56:17;8.65;;;5.07;;
48791;SDS011;34587;48.816;9.420;2023-08-21T05:58:42;6.13;;;5.20;;
48791;SDS011;34587;48.816;9.420;2023-08-21T06:01:07;7.60;;;4.57;;
48791;SDS011;34587;48.816;9.420;2023-08-21T06:03:33;9.48;;;4.80;;
48791;SDS011;34587;48.816;9.420;2023-08-21T06:05:58;6.95;;;4.80;;
48791;SDS011;34587;48.816;9.420;2023-08-21T06:08:23;7.13;;;5.00;;
48791;SDS011;34587;48.816;9.420;2023-08-21T06:10:52;5.70;;;4.68;;
48791;SDS011;34587;48.816;9.420;2023-08-21T06:13:18;7.28;;;5.18;;
48791;SDS011;34587;48.816;9.420;2023-08-21T06:15:43;6.65;;;5.32;;
48791;SDS011;34587;48.816;9.420;2023-08-21T06:18:10;6.03;;;4.45;;
48791;SDS011;34587;48.816;9.420;2023-08-21T06:20:35;11.20;;;5.57;;
48791;SDS011;34587;48.816;9.420;2023-08-21T06:23:01;7.18;;;4.80;;
48791;SDS011;34587;48.816;9.420;2023-08-21T06:25:26;5.22;;;4.53;;
48791;SDS011;34587;48.816;9.420;2023-08-21T06:27:51;5.20;;;4.70;;
48791;SDS011;34587;48.816;9.420;2023-08-21T06:30:17;5.80;;;4.15;;
48791;SDS011;34587;48.816;9.420;2023-08-21T06:32:43;11.32;;;4.10;;
48791;SDS011;34587;48.816;9.420;2023-08-21T06:35:09;9.13;;;4.50;;
48791;SDS011;34587;48.816;9.420;2023-08-21T06:37:34;6.22;;;4.30;;
48791;SDS011;34587;48.816;9.420;2023-08-21T06:39:59;5.65;;;4.13;;
48791;SDS011;34587;48.816;9.420;2023-08-21T06:42:24;7.30;;;3.85;;
48791;SDS011;34587;48.816;9.420;2023-08-21T06:44:51;9.10;;;4.38;;
48791;SDS011;34587;48.816;9.420;2023-08-21T06:47:16;7.18;;;4.30;;
48791;SDS011;34587;48.816;9.420;2023-08-21T06:49:42;6.28;;;3.80;;
48791;SDS011;34587;48.816;9.420;2023-08-21T06:52:07;5.57;;;4.38;;
48791;SDS011;34587;48.816;9.420;2023-08-21T06:54:32;6.55;;;4.30;;
48791;SDS011;34587;48.816;9.420;2023-08-21T06:56:58;5.20;;;3.42;;
48791;SDS011;34587;48.816;9.420;2023-08-21T06:59:23;4.03;;;3.25;;
48791;SDS011;34587;48.816;9.420;2023-08-21T07:01:49;5.18;;;2.88;;
48791;SDS011;34587;48.816;9.420;2023-08-21T07:04:15;6.07;;;3.70;;
48791;SDS011;34587;48.816;9.420;2023-08-21T07:06:41;3.73;;;2.97;;
48791;SDS011;34587;48.816;9.420;2023-08-21T07:09:06;3.50;;;3.13;;
48791;SDS011;34587;48.816;9.420;2023-08-21T07:11:32;8.85;;;3.33;;
48791;SDS011;34587;48.816;9.420;2023-08-21T07:13:57;4.30;;;2.80;;
48791;SDS011;34587;48.816;9.420;2023-08-21T07:16:22;3.47;;;2.70;;
48791;SDS011;34587;48.816;9.420;2023-08-21T07:18:47;3.20;;;2.40;;
48791;SDS011;34587;48.816;9.420;2023-08-21T07:21:13;6.13;;;2.73;;
48791;SDS011;34587;48.816;9.420;2023-08-21T07:23:38;3.40;;;2.70;;
48791;SDS011;34587;48.816;9.420;2023-08-21T07:26:03;6.63;;;2.43;;
48791;SDS011;34587;48.816;9.420;2023-08-21T07:28:32;7.10;;;2.90;;
48791;SDS011;34587;48.816;9.420;2023-08-21T07:30:57;4.55;;;2.85;;
48791;SDS011;34587;48.816;9.420;2023-08-21T07:33:24;5.05;;;2.50;;
48791;SDS011;34587;48.816;9.420;2023-08-21T07:38:24;3.83;;;2.55;;
48791;SDS011;34587;48.816;9.420;2023-08-21T07:40:49;4.22;;;2.60;;
48791;SDS011;34587;48.816;9.420;2023-08-21T07:43:14;3.07;;;2.77;;
48791;SDS011;34587;48.816;9.420;2023-08-21T07:45:40;3.03;;;2.40;;
48791;SDS011;34587;48.816;9.420;2023-08-21T07:48:05;3.10;;;2.63;;
48791;SDS011;34587;48.816;9.420;2023-08-21T07:50:30;4.30;;;2.25;;
48791;SDS011;34587;48.816;9.420;2023-08-21T07:52:56;7.20;;;2.37;;
48791;SDS011;34587;48.816;9.420;2023-08-21T07:55:21;4.63;;;2.43;;
48791;SDS011;34587;48.816;9.420;2023-08-21T07:57:46;6.33;;;2.57;;
48791;SDS011;34587;48.816;9.420;2023-08-21T08:00:12;8.73;;;6.70;;
48791;SDS011;34587;48.816;9.420;2023-08-21T08:02:37;3.50;;;3.20;;
48791;SDS011;34587;48.816;9.420;2023-08-21T08:05:03;5.00;;;2.80;;
48791;SDS011;34587;48.816;9.420;2023-08-21T08:07:28;2.95;;;2.47;;
48791;SDS011;34587;48.816;9.420;2023-08-21T08:09:53;3.92;;;2.47;;
48791;SDS011;34587;48.816;9.420;2023-08-21T08:12:19;5.40;;;2.47;;
48791;SDS011;34587;48.816;9.420;2023-08-21T08:14:44;4.35;;;2.95;;
48791;SDS011;34587;48.816;9.420;2023-08-21T08:17:10;3.87;;;2.63;;
48791;SDS011;34587;48.816;9.420;2023-08-21T08:19:35;2.87;;;2.30;;
48791;SDS011;34587;48.816;9.420;2023-08-21T08:22:00;7.90;;;3.10;;
48791;SDS011;34587;48.816;9.420;2023-08-21T08:24:26;6.00;;;3.00;;
48791;SDS011;34587;48.816;9.420;2023-08-21T08:26:52;6.03;;;2.80;;
48791;SDS011;34587;48.816;9.420;2023-08-21T08:29:18;3.22;;;2.50;;
48791;SDS011;34587;48.816;9.420;2023-08-21T08:31:43;4.53;;;2.73;;
48791;SDS011;34587;48.816;9.420;2023-08-21T08:34:08;6.67;;;4.53;;
48791;SDS011;34587;48.816;9.420;2023-08-21T08:36:34;6.23;;;4.43;;
48791;SDS011;34587;48.816;9.420;2023-08-21T08:39:00;3.53;;;2.22;;
48791;SDS011;34587;48.816;9.420;2023-08-21T08:41:27;3.97;;;2.40;;
48791;SDS011;34587;48.816;9.420;2023-08-21T08:43:58;2.85;;;2.60;;
48791;SDS011;34587;48.816;9.420;2023-08-21T08:46:24;3.55;;;2.47;;
48791;SDS011;34587;48.816;9.420;2023-08-21T08:48:53;3.90;;;2.33;;
48791;SDS011;34587;48.816;9.420;2023-08-21T08:51:19;5.07;;;2.53;;
48791;SDS011;34587;48.816;9.420;2023-08-21T08:53:44;7.07;;;2.50;;
48791;SDS011;34587;48.816;9.420;2023-08-21T08:56:09;3.03;;;2.70;;
48791;SDS011;34587;48.816;9.420;2023-08-21T08:58:35;7.03;;;2.80;;
48791;SDS011;34587;48.816;9.420;2023-08-21T09:01:00;6.15;;;2.63;;
48791;SDS011;34587;48.816;9.420;2023-08-21T09:03:25;4.50;;;2.80;;
48791;SDS011;34587;48.816;9.420;2023-08-21T09:05:51;4.13;;;3.13;;
48791;SDS011;34587;48.816;9.420;2023-08-21T09:08:16;4.80;;;3.00;;
48791;SDS011;34587;48.816;9.420;2023-08-21T09:10:42;4.83;;;3.37;;
48791;SDS011;34587;48.816;9.420;2023-08-21T09:13:08;6.80;;;2.80;;
48791;SDS011;34587;48.816;9.420;2023-08-21T09:18:01;6.00;;;3.47;;
48791;SDS011;34587;48.816;9.420;2023-08-21T09:20:26;3.90;;;2.38;;
48791;SDS011;34587;48.816;9.420;2023-08-21T09:22:54;4.50;;;3.17;;
48791;SDS011;34587;48.816;9.420;2023-08-21T09:25:21;10.10;;;3.35;;
48791;SDS011;34587;48.816;9.420;2023-08-21T09:27:46;3.28;;;2.80;;
48791;SDS011;34587;48.816;9.420;2023-08-21T09:30:16;4.18;;;2.97;;
48791;SDS011;34587;48.816;9.420;2023-08-21T09:32:58;4.20;;;2.63;;
48791;SDS011;34587;48.816;9.420;2023-08-21T09:37:57;7.53;;;2.95;;
48791;SDS011;34587;48.816;9.420;2023-08-21T09:40:22;2.95;;;2.50;;
48791;SDS011;34587;48.816;9.420;2023-08-21T09:42:56;5.50;;;3.97;;
48791;SDS011;34587;48.816;9.420;2023-08-21T09:45:27;3.92;;;3.28;;
48791;SDS011;34587;48.816;9.420;2023-08-21T09:47:53;3.13;;;2.83;;
48791;SDS011;34587;48.816;9.420;2023-08-21T09:50:19;3.22;;;2.30;;
48791;SDS011;34587;48.816;9.420;2023-08-21T09:52:45;3.75;;;2.83;;
48791;SDS011;34587;48.816;9.420;2023-08-21T09:55:12;8.48;;;3.58;;
48791;SDS011;34587;48.816;9.420;2023-08-21T09:57:39;5.28;;;2.53;;
48791;SDS011;34587;48.816;9.420;2023-08-21T10:00:08;6.90;;;3.40;;
48791;SDS011;34587;48.816;9.420;2023-08-21T10:02:43;6.32;;;3.42;;
48791;SDS011;34587;48.816;9.420;2023-08-21T10:05:15;3.90;;;2.60;;
48791;SDS011;34587;48.816;9.420;2023-08-21T10:07:41;5.00;;;2.65;;
48791;SDS011;34587;48.816;9.420;2023-08-21T10:10:12;3.22;;;2.50;;
48791;SDS011;34587;48.816;9.420;2023-08-21T10:12:38;2.28;;;2.08;;
48791;SDS011;34587;48.816;9.420;2023-08-21T10:15:03;3.22;;;2.42;;
48791;SDS011;34587;48.816;9.420;2023-08-21T10:17:32;2.42;;;2.00;;
48791;SDS011;34587;48.816;9.420;2023-08-21T10:20:06;2.60;;;2.40;;
48791;SDS011;34587;48.816;9.420;2023-08-21T10:25:20;4.90;;;2.35;;
48791;SDS011;34587;48.816;9.420;2023-08-21T10:27:51;3.80;;;2.38;;
48791;SDS011;34587;48.816;9.420;2023-08-21T10:30:22;5.35;;;2.65;;
48791;SDS011;34587;48.816;9.420;2023-08-21T10:32:50;3.75;;;2.10;;
48791;SDS011;34587;48.816;9.420;2023-08-21T10:35:18;3.00;;;1.40;;
48791;SDS011;34587;48.816;9.420;2023-08-21T10:40:32;4.03;;;2.53;;
48791;SDS011;34587;48.816;9.420;2023-08-21T10:42:58;2.50;;;2.00;;
48791;SDS011;34587;48.816;9.420;2023-08-21T10:45:24;3.63;;;2.38;;
48791;SDS011;34587;48.816;9.420;2023-08-21T10:47:49;2.80;;;2.07;;
48791;SDS011;34587;48.816;9.420;2023-08-21T10:50:15;4.03;;;2.08;;
48791;SDS011;34587;48.816;9.420;2023-08-21T10:52:42;2.28;;;2.05;;
48791;SDS011;34587;48.816;9.420;2023-08-21T10:55:12;2.63;;;2.28;;
48791;SDS011;34587;48.816;9.420;2023-08-21T11:00:08;2.78;;;2.15;;
48791;SDS011;34587;48.816;9.420;2023-08-21T11:02:41;3.08;;;2.08;;
48791;SDS011;34587;48.816;9.420;2023-08-21T11:05:08;2.22;;;1.98;;
48791;SDS011;34587;48.816;9.420;2023-08-21T11:07:44;2.60;;;2.40;;
48791;SDS011;34587;48.816;9.420;2023-08-21T11:10:11;4.68;;;2.45;;
48791;SDS011;34587;48.816;9.420;2023-08-21T11:12:47;3.17;;;2.20;;
48791;SDS011;34587;48.816;9.420;2023-08-21T11:15:23;2.50;;;2.30;;
48791;SDS011;34587;48.816;9.420;2023-08-21T11:20:31;2.10;;;1.90;;
48791;SDS011;34587;48.816;9.420;2023-08-21T11:22:58;2.78;;;2.10;;
48791;SDS011;34587;48.816;9.420;2023-08-21T11:25:31;3.85;;;2.28;;
48791;SDS011;34587;48.816;9.420;2023-08-21T11:27:58;3.97;;;2.28;;
48791;SDS011;34587;48.816;9.420;2023-08-21T11:30:23;8.15;;;2.58;;
48791;SDS011;34587;48.816;9.420;2023-08-21T11:32:49;3.38;;;2.20;;
48791;SDS011;34587;48.816;9.420;2023-08-21T11:35:15;12.02;;;2.15;;
48791;SDS011;34587;48.816;9.420;2023-08-21T11:37:44;9.00;;;2.88;;
48791;SDS011;34587;48.816;9.420;2023-08-21T11:40:12;3.53;;;2.80;;
48791;SDS011;34587;48.816;9.420;2023-08-21T11:42:39;3.38;;;2.03;;
48791;SDS011;34587;48.816;9.420;2023-08-21T11:45:04;4.93;;;2.10;;
48791;SDS011;34587;48.816;9.420;2023-08-21T11:47:33;5.00;;;3.35;;
48791;SDS011;34587;48.816;9.420;2023-08-21T11:50:06;3.60;;;2.45;;
48791;SDS011;34587;48.816;9.420;2023-08-21T11:52:33;6.80;;;2.60;;
48791;SDS011;34587;48.816;9.420;2023-08-21T11:55:06;4.75;;;2.60;;
48791;SDS011;34587;48.816;9.420;2023-08-21T11:57:32;4.03;;;2.42;;
48791;SDS011;34587;48.816;9.420;2023-08-21T11:59:57;5.47;;;1.80;;
48791;SDS011;34587;48.816;9.420;2023-08-21T12:02:27;4.10;;;2.87;;
48791;SDS011;34587;48.816;9.420;2023-08-21T12:05:14;2.50;;;2.13;;
48791;SDS011;34587;48.816;9.420;2023-08-21T12:07:39;3.13;;;2.00;;
48791;SDS011;34587;48.816;9.420;2023-08-21T12:10:05;5.35;;;2.20;;
48791;SDS011;34587;48.816;9.420;2023-08-21T12:12:30;3.45;;;2.10;;
48791;SDS011;34587;48.816;9.420;2023-08-21T12:14:56;3.10;;;2.60;;
48791;SDS011;34587;48.816;9.420;2023-08-21T12:17:21;5.07;;;2.58;;
48791;SDS011;34587;48.816;9.420;2023-08-21T12:19:47;5.90;;;4.17;;
48791;SDS011;34587;48.816;9.420;2023-08-21T12:22:12;3.85;;;2.53;;
48791;SDS011;34587;48.816;9.420;2023-08-21T12:24:37;7.28;;;2.70;;
48791;SDS011;34587;48.816;9.420;2023-08-21T12:27:03;4.90;;;2.80;;
48791;SDS011;34587;48.816;9.420;2023-08-21T12:29:29;8.40;;;2.92;;
48791;SDS011;34587;48.816;9.420;2023-08-21T12:31:54;3.42;;;3.13;;
48791;SDS011;34587;48.816;9.420;2023-08-21T12:34:20;5.35;;;2.53;;
48791;SDS011;34587;48.816;9.420;2023-08-21T12:36:45;3.60;;;2.80;;
48791;SDS011;34587;48.816;9.420;2023-08-21T12:39:10;3.97;;;2.90;;
48791;SDS011;34587;48.816;9.420;2023-08-21T12:41:36;7.78;;;3.13;;
48791;SDS011;34587;48.816;9.420;2023-08-21T12:44:01;6.95;;;2.42;;
48791;SDS011;34587;48.816;9.420;2023-08-21T12:46:33;5.47;;;2.60;;
48791;SDS011;34587;48.816;9.420;2023-08-21T12:48:59;2.90;;;2.40;;
48791;SDS011;34587;48.816;9.420;2023-08-21T12:51:26;6.88;;;3.03;;
48791;SDS011;34587;48.816;9.420;2023-08-21T12:53:52;4.10;;;3.20;;
48791;SDS011;34587;48.816;9.420;2023-08-21T12:56:17;7.97;;;2.77;;
48791;SDS011;34587;48.816;9.420;2023-08-21T12:58:43;11.88;;;5.88;;
48791;SDS011;34587;48.816;9.420;2023-08-21T13:01:08;8.52;;;2.72;;
48791;SDS011;34587;48.816;9.420;2023-08-21T13:03:34;8.10;;;3.00;;
48791;SDS011;34587;48.816;9.420;2023-08-21T13:06:00;7.68;;;2.58;;
48791;SDS011;34587;48.816;9.420;2023-08-21T13:08:25;3.90;;;2.83;;
48791;SDS011;34587;48.816;9.420;2023-08-21T13:10:51;5.53;;;2.88;;
48791;SDS011;34587;48.816;9.420;2023-08-21T13:13:17;6.22;;;2.85;;
48791;SDS011;34587;48.816;9.420;2023-08-21T13:15:42;6.27;;;3.20;;
48791;SDS011;34587;48.816;9.420;2023-08-21T13:18:11;3.50;;;2.80;;
48791;SDS011;34587;48.816;9.420;2023-08-21T13:20:38;7.32;;;3.35;;
48791;SDS011;34587;48.816;9.420;2023-08-21T13:23:03;3.70;;;3.07;;
48791;SDS011;34587;48.816;9.420;2023-08-21T13:25:28;4.93;;;2.77;;
48791;SDS011;34587;48.816;9.420;2023-08-21T13:27:54;4.55;;;2.70;;
48791;SDS011;34587;48.816;9.420;2023-08-21T13:30:20;7.75;;;2.70;;
48791;SDS011;34587;48.816;9.420;2023-08-21T13:32:47;7.15;;;2.90;;
48791;SDS011;34587;48.816;9.420;2023-08-21T13:35:12;3.90;;;2.67;;
48791;SDS011;34587;48.816;9.420;2023-08-21T13:37:37;3.90;;;2.67;;
48791;SDS011;34587;48.816;9.420;2023-08-21T13:40:04;9.10;;;3.25;;
48791;SDS011;34587;48.816;9.420;2023-08-21T13:42:37;4.47;;;3.22;;
48791;SDS011;34587;48.816;9.420;2023-08-21T13:45:06;4.88;;;2.47;;
48791;SDS011;34587;48.816;9.420;2023-08-21T13:47:33;6.05;;;2.45;;
48791;SDS011;34587;48.816;9.420;2023-08-21T13:49:58;4.53;;;3.10;;
48791;SDS011;34587;48.816;9.420;2023-08-21T13:52:24;7.32;;;3.22;;
48791;SDS011;34587;48.816;9.420;2023-08-21T13:54:49;6.37;;;2.57;;
48791;SDS011;34587;48.816;9.420;2023-08-21T13:57:14;10.50;;;3.00;;
48791;SDS011;34587;48.816;9.420;2023-08-21T13:59:39;7.37;;;3.00;;
48791;SDS011;34587;48.816;9.420;2023-08-21T14:02:05;4.18;;;3.40;;
48791;SDS011;34587;48.816;9.420;2023-08-21T14:04:32;3.37;;;2.20;;
48791;SDS011;34587;48.816;9.420;2023-08-21T14:06:57;5.47;;;2.28;;
48791;SDS011;34587;48.816;9.420;2023-08-21T14:09:22;4.63;;;2.90;;
48791;SDS011;34587;48.816;9.420;2023-08-21T14:11:48;2.90;;;2.20;;
48791;SDS011;34587;48.816;9.420;2023-08-21T14:14:13;4.87;;;2.67;;
48791;SDS011;34587;48.816;9.420;2023-08-21T14:16:38;5.90;;;2.60;;
48791;SDS011;34587;48.816;9.420;2023-08-21T14:19:03;7.27;;;2.33;;
48791;SDS011;34587;48.816;9.420;2023-08-21T14:21:29;4.97;;;2.30;;
48791;SDS011;34587;48.816;9.420;2023-08-21T14:23:54;3.83;;;2.50;;
48791;SDS011;34587;48.816;9.420;2023-08-21T14:26:19;4.80;;;2.40;;
48791;SDS011;34587;48.816;9.420;2023-08-21T14:28:45;3.08;;;2.75;;
48791;SDS011;34587;48.816;9.420;2023-08-21T14:31:15;5.63;;;2.22;;
48791;SDS011;34587;48.816;9.420;2023-08-21T14:33:41;4.55;;;2.50;;
48791;SDS011;34587;48.816;9.420;2023-08-21T14:36:06;4.37;;;2.23;;
48791;SDS011;34587;48.816;9.420;2023-08-21T14:38:31;3.42;;;2.30;;
48791;SDS011;34587;48.816;9.420;2023-08-21T14:40:57;3.70;;;2.58;;
48791;SDS011;34587;48.816;9.420;2023-08-21T14:43:23;6.88;;;2.63;;
48791;SDS011;34587;48.816;9.420;2023-08-21T14:45:48;3.05;;;2.38;;
48791;SDS011;34587;48.816;9.420;2023-08-21T14:48:13;4.05;;;2.55;;
48791;SDS011;34587;48.816;9.420;2023-08-21T14:50:39;3.90;;;3.10;;
48791;SDS011;34587;48.816;9.420;2023-08-21T14:53:04;6.38;;;2.70;;
48791;SDS011;34587;48.816;9.420;2023-08-21T14:55:29;2.70;;;2.23;;
48791;SDS011;34587;48.816;9.420;2023-08-21T14:57:54;10.50;;;2.00;;
48791;SDS011;34587;48.816;9.420;2023-08-21T15:00:20;5.73;;;2.90;;
48791;SDS011;34587;48.816;9.420;2023-08-21T15:02:45;4.15;;;2.83;;
48791;SDS011;34587;48.816;9.420;2023-08-21T15:05:10;7.83;;;2.67;;
48791;SDS011;34587;48.816;9.420;2023-08-21T15:07:37;3.17;;;2.13;;
48791;SDS011;34587;48.816;9.420;2023-08-21T15:10:02;5.40;;;2.47;;
48791;SDS011;34587;48.816;9.420;2023-08-21T15:12:27;4.30;;;2.30;;
48791;SDS011;34587;48.816;9.420;2023-08-21T15:14:53;2.97;;;2.17;;
48791;SDS011;34587;48.816;9.420;2023-08-21T15:17:18;14.68;;;8.27;;
48791;SDS011;34587;48.816;9.420;2023-08-21T15:19:43;4.20;;;2.53;;
48791;SDS011;34587;48.816;9.420;2023-08-21T15:22:09;10.20;;;2.85;;
48791;SDS011;34587;48.816;9.420;2023-08-21T15:24:34;8.30;;;2.60;;
48791;SDS011;34587;48.816;9.420;2023-08-21T15:26:59;3.50;;;2.70;;
48791;SDS011;34587;48.816;9.420;2023-08-21T15:29:25;4.23;;;2.93;;
48791;SDS011;34587;48.816;9.420;2023-08-21T15:31:50;5.47;;;2.57;;
48791;SDS011;34587;48.816;9.420;2023-08-21T15:34:16;9.10;;;3.97;;
48791;SDS011;34587;48.816;9.420;2023-08-21T15:36:41;4.45;;;2.20;;
48791;SDS011;34587;48.816;9.420;2023-08-21T15:39:07;6.13;;;3.40;;
48791;SDS011;34587;48.816;9.420;2023-08-21T15:41:32;3.88;;;2.70;;
48791;SDS011;34587;48.816;9.420;2023-08-21T15:43:58;5.90;;;2.50;;
48791;SDS011;34587;48.816;9.420;2023-08-21T15:46:23;4.00;;;2.40;;
48791;SDS011;34587;48.816;9.420;2023-08-21T15:48:48;6.90;;;3.13;;
48791;SDS011;34587;48.816;9.420;2023-08-21T15:51:13;5.75;;;2.97;;
48791;SDS011;34587;48.816;9.420;2023-08-21T15:53:39;5.00;;;2.47;;
48791;SDS011;34587;48.816;9.420;2023-08-21T15:56:04;2.60;;;2.22;;
48791;SDS011;34587;48.816;9.420;2023-08-21T15:58:30;4.07;;;2.85;;
48791;SDS011;34587;48.816;9.420;2023-08-21T16:00:56;5.57;;;4.72;;
48791;SDS011;34587;48.816;9.420;2023-08-21T16:03:22;3.42;;;2.20;;
48791;SDS011;34587;48.816;9.420;2023-08-21T16:05:48;4.80;;;2.60;;
48791;SDS011;34587;48.816;9.420;2023-08-21T16:08:13;2.60;;;2.20;;
48791;SDS011;34587;48.816;9.420;2023-08-21T16:10:38;3.20;;;2.65;;
48791;SDS011;34587;48.816;9.420;2023-08-21T16:13:03;5.60;;;2.20;;
48791;SDS011;34587;48.816;9.420;2023-08-21T16:15:29;6.20;;;3.10;;
48791;SDS011;34587;48.816;9.420;2023-08-21T16:17:54;2.47;;;2.13;;
48791;SDS011;34587;48.816;9.420;2023-08-21T16:20:19;4.50;;;2.00;;
48791;SDS011;34587;48.816;9.420;2023-08-21T16:22:45;7.68;;;2.05;;
48791;SDS011;34587;48.816;9.420;2023-08-21T16:25:10;4.43;;;2.20;;
48791;SDS011;34587;48.816;9.420;2023-08-21T16:27:37;2.42;;;2.00;;
48791;SDS011;34587;48.816;9.420;2023-08-21T16:30:03;4.00;;;2.30;;
48791;SDS011;34587;48.816;9.420;2023-08-21T16:32:29;7.18;;;2.15;;
48791;SDS011;34587;48.816;9.420;2023-08-21T16:34:55;6.70;;;2.33;;
48791;SDS011;34587;48.816;9.420;2023-08-21T16:37:20;3.60;;;2.47;;
48791;SDS011;34587;48.816;9.420;2023-08-21T16:39:45;6.20;;;2.90;;
48791;SDS011;34587;48.816;9.420;2023-08-21T16:42:10;5.93;;;2.03;;
48791;SDS011;34587;48.816;9.420;2023-08-21T16:44:36;2.60;;;2.40;;
48791;SDS011;34587;48.816;9.420;2023-08-21T16:47:01;6.67;;;2.90;;
48791;SDS011;34587;48.816;9.420;2023-08-21T16:49:27;8.38;;;2.05;;
48791;SDS011;34587;48.816;9.420;2023-08-21T16:51:52;3.00;;;2.47;;
48791;SDS011;34587;48.816;9.420;2023-08-21T16:54:18;3.55;;;2.20;;
48791;SDS011;34587;48.816;9.420;2023-08-21T16:56:44;5.00;;;2.28;;
48791;SDS011;34587;48.816;9.420;2023-08-21T16:59:09;4.03;;;2.37;;
48791;SDS011;34587;48.816;9.420;2023-08-21T17:01:34;5.03;;;2.67;;
48791;SDS011;34587;48.816;9.420;2023-08-21T17:03:59;1.87;;;1.77;;
48791;SDS011;34587;48.816;9.420;2023-08-21T17:06:25;3.77;;;2.50;;
48791;SDS011;34587;48.816;9.420;2023-08-21T17:08:50;2.40;;;2.20;;
48791;SDS011;34587;48.816;9.420;2023-08-21T17:11:15;2.30;;;2.08;;
48791;SDS011;34587;48.816;9.420;2023-08-21T17:13:41;5.75;;;2.88;;
48791;SDS011;34587;48.816;9.420;2023-08-21T17:16:06;5.73;;;2.40;;
48791;SDS011;34587;48.816;9.420;2023-08-21T17:18:31;9.57;;;2.80;;
48791;SDS011;34587;48.816;9.420;2023-08-21T17:20:57;5.03;;;2.53;;
48791;SDS011;34587;48.816;9.420;2023-08-21T17:23:22;3.50;;;2.50;;
48791;SDS011;34587;48.816;9.420;2023-08-21T17:25:47;6.07;;;2.70;;
48791;SDS011;34587;48.816;9.420;2023-08-21T17:28:13;3.05;;;2.33;;
48791;SDS011;34587;48.816;9.420;2023-08-21T17:30:38;9.57;;;2.30;;
48791;SDS011;34587;48.816;9.420;2023-08-21T17:33:04;4.30;;;3.33;;
48791;SDS011;34587;48.816;9.420;2023-08-21T17:35:29;6.13;;;2.88;;
48791;SDS011;34587;48.816;9.420;2023-08-21T17:37:55;3.28;;;2.67;;
48791;SDS011;34587;48.816;9.420;2023-08-21T17:40:20;4.68;;;2.88;;
48791;SDS011;34587;48.816;9.420;2023-08-21T17:42:46;2.88;;;2.50;;
48791;SDS011;34587;48.816;9.420;2023-08-21T17:45:11;8.73;;;3.30;;
48791;SDS011;34587;48.816;9.420;2023-08-21T17:47:36;4.18;;;2.95;;
48791;SDS011;34587;48.816;9.420;2023-08-21T17:50:02;5.63;;;3.17;;
48791;SDS011;34587;48.816;9.420;2023-08-21T17:52:27;4.45;;;3.30;;
48791;SDS011;34587;48.816;9.420;2023-08-21T17:54:53;2.60;;;2.40;;
48791;SDS011;34587;48.816;9.420;2023-08-21T17:57:19;5.43;;;2.90;;
48791;SDS011;34587;48.816;9.420;2023-08-21T17:59:44;3.60;;;2.72;;
48791;SDS011;34587;48.816;9.420;2023-08-21T18:02:09;6.23;;;2.67;;
48791;SDS011;34587;48.816;9.420;2023-08-21T18:04:34;4.32;;;2.70;;
48791;SDS011;34587;48.816;9.420;2023-08-21T18:07:00;9.93;;;3.60;;
48791;SDS011;34587;48.816;9.420;2023-08-21T18:09:25;4.40;;;2.75;;
48791;SDS011;34587;48.816;9.420;2023-08-21T18:11:50;3.80;;;2.83;;
48791;SDS011;34587;48.816;9.420;2023-08-21T18:14:16;9.00;;;2.72;;
48791;SDS011;34587;48.816;9.420;2023-08-21T18:16:41;5.82;;;3.00;;
48791;SDS011;34587;48.816;9.420;2023-08-21T18:19:07;5.30;;;2.92;;
48791;SDS011;34587;48.816;9.420;2023-08-21T18:21:32;4.28;;;2.60;;
48791;SDS011;34587;48.816;9.420;2023-08-21T18:23:58;4.27;;;3.20;;
48791;SDS011;34587;48.816;9.420;2023-08-21T18:26:23;3.42;;;2.75;;
48791;SDS011;34587;48.816;9.420;2023-08-21T18:28:50;5.05;;;3.28;;
48791;SDS011;34587;48.816;9.420;2023-08-21T18:31:15;6.05;;;3.55;;
48791;SDS011;34587;48.816;9.420;2023-08-21T18:33:40;6.47;;;3.60;;
48791;SDS011;34587;48.816;9.420;2023-08-21T18:36:06;4.70;;;3.05;;
48791;SDS011;34587;48.816;9.420;2023-08-21T18:38:31;8.40;;;2.85;;
48791;SDS011;34587;48.816;9.420;2023-08-21T18:40:57;4.60;;;3.05;;
48791;SDS011;34587;48.816;9.420;2023-08-21T18:43:25;3.88;;;2.95;;
48791;SDS011;34587;48.816;9.420;2023-08-21T18:45:51;5.70;;;2.85;;
48791;SDS011;34587;48.816;9.420;2023-08-21T18:48:16;6.28;;;3.15;;
48791;SDS011;34587;48.816;9.420;2023-08-21T18:50:43;7.47;;;3.17;;
48791;SDS011;34587;48.816;9.420;2023-08-21T18:53:12;6.10;;;3.13;;
48791;SDS011;34587;48.816;9.420;2023-08-21T18:55:40;3.78;;;3.28;;
48791;SDS011;34587;48.816;9.420;2023-08-21T18:58:10;3.38;;;2.58;;
48791;SDS011;34587;48.816;9.420;2023-08-21T19:00:36;4.63;;;3.10;;
48791;SDS011;34587;48.816;9.420;2023-08-21T19:03:01;3.92;;;3.20;;
48791;SDS011;34587;48.816;9.420;2023-08-21T19:05:27;6.05;;;3.28;;
48791;SDS011;34587;48.816;9.420;2023-08-21T19:07:53;6.50;;;3.13;;
48791;SDS011;34587;48.816;9.420;2023-08-21T19:10:18;7.90;;;3.33;;
48791;SDS011;34587;48.816;9.420;2023-08-21T19:12:44;4.25;;;3.60;;
48791;SDS011;34587;48.816;9.420;2023-08-21T19:15:11;10.32;;;3.95;;